sensor_id;sensor_type;location;lat;lon;timestamp;temperature;humidity
8591;DHT22;4333;48.322;14.340;2022-09-01T00:01:36;14.00;99.90
8591;DHT22;4333;48.322;14.340;2022-09-01T00:04:04;13.90;99.90
8591;DHT22;4333;48.322;14.340;2022-09-01T00:06:32;13.90;99.90
8591;DHT22;4333;48.322;14.340;2022-09-01T00:09:02;13.90;99.90
8591;DHT22;4333;48.322;14.340;2022-09-01T00:11:29;14.10;99.90
8591;DHT22;4333;48.322;14.340;2022-09-01T00:13:59;14.20;99.90
8591;DHT22;4333;48.322;14.340;2022-09-01T00:16:28;14.10;99.90
8591;DHT22;4333;48.322;14.340;2022-09-01T00:18:55;14.10;99.90
8591;DHT22;4333;48.322;14.340;2022-09-01T00:21:25;13.90;99.90
8591;DHT22;4333;48.322;14.340;2022-09-01T00:23:54;13.80;99.90
8591;DHT22;4333;48.322;14.340;2022-09-01T00:26:20;13.80;99.90
8591;DHT22;4333;48.322;14.340;2022-09-01T00:28:46;13.70;99.90
8591;DHT22;4333;48.322;14.340;2022-09-01T00:31:12;13.80;99.90
8591;DHT22;4333;48.322;14.340;2022-09-01T00:33:40;13.80;99.90
8591;DHT22;4333;48.322;14.340;2022-09-01T00:36:06;13.90;99.90
8591;DHT22;4333;48.322;14.340;2022-09-01T00:38:32;14.00;99.90
8591;DHT22;4333;48.322;14.340;2022-09-01T00:41:00;14.10;99.90
8591;DHT22;4333;48.322;14.340;2022-09-01T00:43:45;14.00;99.90
8591;DHT22;4333;48.322;14.340;2022-09-01T00:46:19;14.00;99.90
8591;DHT22;4333;48.322;14.340;2022-09-01T00:48:56;14.00;99.90
8591;DHT22;4333;48.322;14.340;2022-09-01T00:51:24;13.90;99.90
8591;DHT22;4333;48.322;14.340;2022-09-01T00:53:53;13.90;99.90
8591;DHT22;4333;48.322;14.340;2022-09-01T00:56:21;14.10;99.90
8591;DHT22;4333;48.322;14.340;2022-09-01T00:58:49;14.20;99.90
8591;DHT22;4333;48.322;14.340;2022-09-01T01:01:17;14.20;99.90
8591;DHT22;4333;48.322;14.340;2022-09-01T01:03:43;14.20;99.90
8591;DHT22;4333;48.322;14.340;2022-09-01T01:06:12;14.30;99.90
8591;DHT22;4333;48.322;14.340;2022-09-01T01:08:44;14.40;99.90
8591;DHT22;4333;48.322;14.340;2022-09-01T01:11:17;14.40;99.90
8591;DHT22;4333;48.322;14.340;2022-09-01T01:13:51;14.30;99.90
8591;DHT22;4333;48.322;14.340;2022-09-01T01:16:21;14.30;99.90
8591;DHT22;4333;48.322;14.340;2022-09-01T01:18:50;14.20;99.90
8591;DHT22;4333;48.322;14.340;2022-09-01T01:21:34;14.20;99.90
8591;DHT22;4333;48.322;14.340;2022-09-01T01:24:27;14.20;99.90
8591;DHT22;4333;48.322;14.340;2022-09-01T01:26:54;14.20;99.90
8591;DHT22;4333;48.322;14.340;2022-09-01T01:29:27;14.20;99.90
8591;DHT22;4333;48.322;14.340;2022-09-01T01:31:59;14.10;99.90
8591;DHT22;4333;48.322;14.340;2022-09-01T01:34:26;14.10;99.90
8591;DHT22;4333;48.322;14.340;2022-09-01T01:36:55;14.10;99.90
8591;DHT22;4333;48.322;14.340;2022-09-01T01:39:24;14.10;99.90
8591;DHT22;4333;48.322;14.340;2022-09-01T01:41:54;14.00;99.90
8591;DHT22;4333;48.322;14.340;2022-09-01T01:44:23;14.00;99.90
8591;DHT22;4333;48.322;14.340;2022-09-01T01:46:53;14.00;99.90
8591;DHT22;4333;48.322;14.340;2022-09-01T01:49:24;13.90;99.90
8591;DHT22;4333;48.322;14.340;2022-09-01T01:51:53;13.90;99.90
8591;DHT22;4333;48.322;14.340;2022-09-01T01:54:25;13.90;99.90
8591;DHT22;4333;48.322;14.340;2022-09-01T01:56:54;13.90;99.90
8591;DHT22;4333;48.322;14.340;2022-09-01T01:59:21;13.90;99.90
8591;DHT22;4333;48.322;14.340;2022-09-01T02:01:49;13.90;99.90
8591;DHT22;4333;48.322;14.340;2022-09-01T02:04:16;13.90;99.90
8591;DHT22;4333;48.322;14.340;2022-09-01T02:06:43;13.90;99.90
8591;DHT22;4333;48.322;14.340;2022-09-01T02:09:14;13.90;99.90
8591;DHT22;4333;48.322;14.340;2022-09-01T02:11:40;13.90;99.90
8591;DHT22;4333;48.322;14.340;2022-09-01T02:14:07;13.90;99.90
8591;DHT22;4333;48.322;14.340;2022-09-01T02:16:34;13.90;99.90
8591;DHT22;4333;48.322;14.340;2022-09-01T02:19:01;13.90;99.90
8591;DHT22;4333;48.322;14.340;2022-09-01T02:21:28;13.80;99.90
8591;DHT22;4333;48.322;14.340;2022-09-01T02:24:00;13.80;99.90
8591;DHT22;4333;48.322;14.340;2022-09-01T02:26:31;13.80;99.90
8591;DHT22;4333;48.322;14.340;2022-09-01T02:29:00;13.80;99.90
8591;DHT22;4333;48.322;14.340;2022-09-01T02:31:33;13.70;99.90
8591;DHT22;4333;48.322;14.340;2022-09-01T02:34:07;13.60;99.90
8591;DHT22;4333;48.322;14.340;2022-09-01T02:36:36;13.50;99.90
8591;DHT22;4333;48.322;14.340;2022-09-01T02:39:17;13.50;99.90
8591;DHT22;4333;48.322;14.340;2022-09-01T02:41:46;13.40;99.90
8591;DHT22;4333;48.322;14.340;2022-09-01T02:44:11;13.30;99.90
8591;DHT22;4333;48.322;14.340;2022-09-01T02:46:41;13.30;99.90
8591;DHT22;4333;48.322;14.340;2022-09-01T02:49:16;13.20;99.90
8591;DHT22;4333;48.322;14.340;2022-09-01T02:51:49;13.20;99.90
8591;DHT22;4333;48.322;14.340;2022-09-01T02:54:19;13.10;99.90
8591;DHT22;4333;48.322;14.340;2022-09-01T02:56:50;13.10;99.90
8591;DHT22;4333;48.322;14.340;2022-09-01T02:59:19;13.10;99.90
8591;DHT22;4333;48.322;14.340;2022-09-01T03:01:50;13.00;99.90
8591;DHT22;4333;48.322;14.340;2022-09-01T03:04:17;13.00;99.90
8591;DHT22;4333;48.322;14.340;2022-09-01T03:06:43;12.90;99.90
8591;DHT22;4333;48.322;14.340;2022-09-01T03:09:17;12.90;99.90
8591;DHT22;4333;48.322;14.340;2022-09-01T03:11:45;12.90;99.90
8591;DHT22;4333;48.322;14.340;2022-09-01T03:14:12;12.80;99.90
8591;DHT22;4333;48.322;14.340;2022-09-01T03:16:39;12.80;99.90
8591;DHT22;4333;48.322;14.340;2022-09-01T03:19:07;12.70;99.90
8591;DHT22;4333;48.322;14.340;2022-09-01T03:21:37;12.70;99.90
8591;DHT22;4333;48.322;14.340;2022-09-01T03:24:06;12.70;99.90
8591;DHT22;4333;48.322;14.340;2022-09-01T03:26:34;12.70;99.90
8591;DHT22;4333;48.322;14.340;2022-09-01T03:29:01;12.70;99.90
8591;DHT22;4333;48.322;14.340;2022-09-01T03:31:27;12.60;99.90
8591;DHT22;4333;48.322;14.340;2022-09-01T03:33:54;12.60;99.90
8591;DHT22;4333;48.322;14.340;2022-09-01T03:36:22;12.60;99.90
8591;DHT22;4333;48.322;14.340;2022-09-01T03:38:51;12.60;99.90
8591;DHT22;4333;48.322;14.340;2022-09-01T03:41:21;12.50;99.90
8591;DHT22;4333;48.322;14.340;2022-09-01T03:43:51;12.50;99.90
8591;DHT22;4333;48.322;14.340;2022-09-01T03:46:23;12.50;99.90
8591;DHT22;4333;48.322;14.340;2022-09-01T03:48:54;12.50;99.90
8591;DHT22;4333;48.322;14.340;2022-09-01T03:51:24;12.50;99.90
8591;DHT22;4333;48.322;14.340;2022-09-01T03:53:52;12.50;99.90
8591;DHT22;4333;48.322;14.340;2022-09-01T03:56:28;12.40;99.90
8591;DHT22;4333;48.322;14.340;2022-09-01T03:58:56;12.50;99.90
8591;DHT22;4333;48.322;14.340;2022-09-01T04:01:23;12.50;99.90
8591;DHT22;4333;48.322;14.340;2022-09-01T04:03:49;12.40;99.90
8591;DHT22;4333;48.322;14.340;2022-09-01T04:06:18;12.40;99.90
8591;DHT22;4333;48.322;14.340;2022-09-01T04:08:49;12.40;99.90
8591;DHT22;4333;48.322;14.340;2022-09-01T04:11:17;12.40;99.90
8591;DHT22;4333;48.322;14.340;2022-09-01T04:13:46;12.40;99.90
8591;DHT22;4333;48.322;14.340;2022-09-01T04:16:27;12.40;99.90
8591;DHT22;4333;48.322;14.340;2022-09-01T04:19:13;12.40;99.90
8591;DHT22;4333;48.322;14.340;2022-09-01T04:21:57;12.50;99.90
8591;DHT22;4333;48.322;14.340;2022-09-01T04:24:29;12.50;99.90
8591;DHT22;4333;48.322;14.340;2022-09-01T04:27:00;12.50;99.90
8591;DHT22;4333;48.322;14.340;2022-09-01T04:29:27;12.50;99.90
8591;DHT22;4333;48.322;14.340;2022-09-01T04:31:55;12.60;99.90
8591;DHT22;4333;48.322;14.340;2022-09-01T04:34:21;12.60;99.90
8591;DHT22;4333;48.322;14.340;2022-09-01T04:36:49;12.70;99.90
8591;DHT22;4333;48.322;14.340;2022-09-01T04:39:19;12.70;99.90
8591;DHT22;4333;48.322;14.340;2022-09-01T04:41:45;12.70;99.90
8591;DHT22;4333;48.322;14.340;2022-09-01T04:44:12;12.80;99.90
8591;DHT22;4333;48.322;14.340;2022-09-01T04:46:41;12.80;99.90
8591;DHT22;4333;48.322;14.340;2022-09-01T04:49:08;12.80;99.90
8591;DHT22;4333;48.322;14.340;2022-09-01T04:51:43;12.80;99.90
8591;DHT22;4333;48.322;14.340;2022-09-01T04:54:12;12.90;99.90
8591;DHT22;4333;48.322;14.340;2022-09-01T04:56:40;12.90;99.90
8591;DHT22;4333;48.322;14.340;2022-09-01T04:59:08;13.00;99.90
8591;DHT22;4333;48.322;14.340;2022-09-01T05:01:35;13.00;99.90
8591;DHT22;4333;48.322;14.340;2022-09-01T05:04:19;13.10;99.90
8591;DHT22;4333;48.322;14.340;2022-09-01T05:06:57;13.00;99.90
8591;DHT22;4333;48.322;14.340;2022-09-01T05:09:27;13.00;99.90
8591;DHT22;4333;48.322;14.340;2022-09-01T05:11:54;13.10;99.90
8591;DHT22;4333;48.322;14.340;2022-09-01T05:14:22;13.20;99.90
8591;DHT22;4333;48.322;14.340;2022-09-01T05:16:49;13.30;99.90
8591;DHT22;4333;48.322;14.340;2022-09-01T05:19:18;13.30;99.90
8591;DHT22;4333;48.322;14.340;2022-09-01T05:21:46;13.40;99.90
8591;DHT22;4333;48.322;14.340;2022-09-01T05:24:15;13.50;99.90
8591;DHT22;4333;48.322;14.340;2022-09-01T05:26:42;13.50;99.90
8591;DHT22;4333;48.322;14.340;2022-09-01T05:29:09;13.60;99.90
8591;DHT22;4333;48.322;14.340;2022-09-01T05:31:41;13.60;99.90
8591;DHT22;4333;48.322;14.340;2022-09-01T05:34:08;13.70;99.90
8591;DHT22;4333;48.322;14.340;2022-09-01T05:36:37;13.70;99.90
8591;DHT22;4333;48.322;14.340;2022-09-01T05:39:09;13.70;99.90
8591;DHT22;4333;48.322;14.340;2022-09-01T05:41:37;13.80;99.90
8591;DHT22;4333;48.322;14.340;2022-09-01T05:44:04;13.70;99.90
8591;DHT22;4333;48.322;14.340;2022-09-01T05:46:34;13.80;99.90
8591;DHT22;4333;48.322;14.340;2022-09-01T05:49:05;13.90;99.90
8591;DHT22;4333;48.322;14.340;2022-09-01T05:51:40;14.00;99.90
8591;DHT22;4333;48.322;14.340;2022-09-01T05:54:07;14.10;99.90
8591;DHT22;4333;48.322;14.340;2022-09-01T05:56:34;14.10;99.90
8591;DHT22;4333;48.322;14.340;2022-09-01T05:59:05;14.20;99.90
8591;DHT22;4333;48.322;14.340;2022-09-01T06:01:31;14.30;99.90
8591;DHT22;4333;48.322;14.340;2022-09-01T06:04:05;14.30;99.90
8591;DHT22;4333;48.322;14.340;2022-09-01T06:06:42;14.40;99.90
8591;DHT22;4333;48.322;14.340;2022-09-01T06:09:15;14.70;99.90
8591;DHT22;4333;48.322;14.340;2022-09-01T06:11:46;15.40;99.90
8591;DHT22;4333;48.322;14.340;2022-09-01T06:14:13;15.80;99.90
8591;DHT22;4333;48.322;14.340;2022-09-01T06:16:40;16.30;99.90
8591;DHT22;4333;48.322;14.340;2022-09-01T06:19:06;17.00;99.90
8591;DHT22;4333;48.322;14.340;2022-09-01T06:21:32;17.30;99.90
8591;DHT22;4333;48.322;14.340;2022-09-01T06:23:58;17.90;99.90
8591;DHT22;4333;48.322;14.340;2022-09-01T06:26:33;18.70;99.90
8591;DHT22;4333;48.322;14.340;2022-09-01T06:29:02;19.10;99.90
8591;DHT22;4333;48.322;14.340;2022-09-01T06:31:33;19.50;99.90
8591;DHT22;4333;48.322;14.340;2022-09-01T06:34:06;19.70;99.90
8591;DHT22;4333;48.322;14.340;2022-09-01T06:36:38;19.00;99.90
8591;DHT22;4333;48.322;14.340;2022-09-01T06:39:06;19.20;99.90
8591;DHT22;4333;48.322;14.340;2022-09-01T06:41:32;19.80;99.90
8591;DHT22;4333;48.322;14.340;2022-09-01T06:43:59;19.70;99.90
8591;DHT22;4333;48.322;14.340;2022-09-01T06:46:26;19.50;99.90
8591;DHT22;4333;48.322;14.340;2022-09-01T06:48:54;19.40;99.90
8591;DHT22;4333;48.322;14.340;2022-09-01T06:51:25;19.50;99.90
8591;DHT22;4333;48.322;14.340;2022-09-01T06:53:53;19.40;99.90
8591;DHT22;4333;48.322;14.340;2022-09-01T06:56:30;19.30;99.90
8591;DHT22;4333;48.322;14.340;2022-09-01T06:58:59;19.40;99.90
8591;DHT22;4333;48.322;14.340;2022-09-01T07:01:26;19.20;99.90
8591;DHT22;4333;48.322;14.340;2022-09-01T07:03:53;18.70;99.90
8591;DHT22;4333;48.322;14.340;2022-09-01T07:06:22;18.20;99.90
8591;DHT22;4333;48.322;14.340;2022-09-01T07:08:57;18.40;99.90
8591;DHT22;4333;48.322;14.340;2022-09-01T07:11:28;20.00;99.90
8591;DHT22;4333;48.322;14.340;2022-09-01T07:14:01;21.30;99.90
8591;DHT22;4333;48.322;14.340;2022-09-01T07:16:30;21.60;99.90
8591;DHT22;4333;48.322;14.340;2022-09-01T07:18:58;22.40;99.90
8591;DHT22;4333;48.322;14.340;2022-09-01T07:21:27;22.90;99.90
8591;DHT22;4333;48.322;14.340;2022-09-01T07:23:54;22.70;99.90
8591;DHT22;4333;48.322;14.340;2022-09-01T07:26:20;22.70;99.90
8591;DHT22;4333;48.322;14.340;2022-09-01T07:28:48;22.40;99.90
8591;DHT22;4333;48.322;14.340;2022-09-01T07:31:26;21.30;99.90
8591;DHT22;4333;48.322;14.340;2022-09-01T07:33:53;20.20;99.90
8591;DHT22;4333;48.322;14.340;2022-09-01T07:36:20;19.70;99.90
8591;DHT22;4333;48.322;14.340;2022-09-01T07:38:47;19.40;99.90
8591;DHT22;4333;48.322;14.340;2022-09-01T07:41:20;19.40;99.90
8591;DHT22;4333;48.322;14.340;2022-09-01T07:43:46;19.90;99.90
8591;DHT22;4333;48.322;14.340;2022-09-01T07:46:16;19.80;99.90
8591;DHT22;4333;48.322;14.340;2022-09-01T07:48:45;20.20;99.90
8591;DHT22;4333;48.322;14.340;2022-09-01T07:51:13;20.10;99.90
8591;DHT22;4333;48.322;14.340;2022-09-01T07:53:44;20.10;99.90
8591;DHT22;4333;48.322;14.340;2022-09-01T07:56:10;20.00;99.90
8591;DHT22;4333;48.322;14.340;2022-09-01T07:58:38;20.00;99.90
8591;DHT22;4333;48.322;14.340;2022-09-01T08:01:07;20.20;99.90
8591;DHT22;4333;48.322;14.340;2022-09-01T08:03:34;19.80;99.90
8591;DHT22;4333;48.322;14.340;2022-09-01T08:06:08;19.40;99.90
8591;DHT22;4333;48.322;14.340;2022-09-01T08:08:38;19.10;99.90
8591;DHT22;4333;48.322;14.340;2022-09-01T08:11:05;19.00;99.90
8591;DHT22;4333;48.322;14.340;2022-09-01T08:13:36;19.10;99.90
8591;DHT22;4333;48.322;14.340;2022-09-01T08:16:05;19.40;99.90
8591;DHT22;4333;48.322;14.340;2022-09-01T08:18:32;19.40;99.90
8591;DHT22;4333;48.322;14.340;2022-09-01T08:20:59;19.40;99.90
8591;DHT22;4333;48.322;14.340;2022-09-01T08:23:24;19.60;99.90
8591;DHT22;4333;48.322;14.340;2022-09-01T08:25:52;19.80;99.90
8591;DHT22;4333;48.322;14.340;2022-09-01T08:28:18;20.00;99.90
8591;DHT22;4333;48.322;14.340;2022-09-01T08:30:45;20.40;99.90
8591;DHT22;4333;48.322;14.340;2022-09-01T08:33:13;20.60;99.90
8591;DHT22;4333;48.322;14.340;2022-09-01T08:35:46;20.60;99.90
8591;DHT22;4333;48.322;14.340;2022-09-01T08:38:14;20.60;99.90
8591;DHT22;4333;48.322;14.340;2022-09-01T08:40:49;21.00;99.90
8591;DHT22;4333;48.322;14.340;2022-09-01T08:43:18;21.50;99.90
8591;DHT22;4333;48.322;14.340;2022-09-01T08:45:54;22.10;99.90
8591;DHT22;4333;48.322;14.340;2022-09-01T08:48:39;22.70;99.90
8591;DHT22;4333;48.322;14.340;2022-09-01T08:59:45;24.10;95.70
8591;DHT22;4333;48.322;14.340;2022-09-01T09:10:40;22.10;92.30
8591;DHT22;4333;48.322;14.340;2022-09-01T09:13:22;21.10;93.50
8591;DHT22;4333;48.322;14.340;2022-09-01T09:16:03;20.60;96.50
8591;DHT22;4333;48.322;14.340;2022-09-01T09:18:47;20.90;97.20
8591;DHT22;4333;48.322;14.340;2022-09-01T09:21:32;21.50;98.80
8591;DHT22;4333;48.322;14.340;2022-09-01T09:26:58;21.30;96.90
8591;DHT22;4333;48.322;14.340;2022-09-01T09:29:25;20.80;96.60
8591;DHT22;4333;48.322;14.340;2022-09-01T09:32:06;21.30;96.70
8591;DHT22;4333;48.322;14.340;2022-09-01T09:37:48;22.30;93.70
8591;DHT22;4333;48.322;14.340;2022-09-01T09:40:22;22.10;93.70
8591;DHT22;4333;48.322;14.340;2022-09-01T09:47:56;20.60;97.30
8591;DHT22;4333;48.322;14.340;2022-09-01T09:50:31;20.70;99.30
8591;DHT22;4333;48.322;14.340;2022-09-01T09:53:32;20.80;97.00
8591;DHT22;4333;48.322;14.340;2022-09-01T09:55:59;20.60;97.00
8591;DHT22;4333;48.322;14.340;2022-09-01T09:58:36;20.60;97.70
8591;DHT22;4333;48.322;14.340;2022-09-01T10:01:12;20.60;99.00
8591;DHT22;4333;48.322;14.340;2022-09-01T10:03:54;20.70;96.50
8591;DHT22;4333;48.322;14.340;2022-09-01T10:06:39;21.00;97.00
8591;DHT22;4333;48.322;14.340;2022-09-01T10:09:32;21.40;96.30
8591;DHT22;4333;48.322;14.340;2022-09-01T10:11:58;21.40;92.70
8591;DHT22;4333;48.322;14.340;2022-09-01T10:14:46;21.10;95.70
8591;DHT22;4333;48.322;14.340;2022-09-01T10:17:18;21.00;96.40
8591;DHT22;4333;48.322;14.340;2022-09-01T10:19:58;20.60;96.00
8591;DHT22;4333;48.322;14.340;2022-09-01T10:22:30;20.20;96.20
8591;DHT22;4333;48.322;14.340;2022-09-01T10:24:58;20.00;95.60
8591;DHT22;4333;48.322;14.340;2022-09-01T10:27:29;20.10;97.10
8591;DHT22;4333;48.322;14.340;2022-09-01T10:30:14;20.30;95.90
8591;DHT22;4333;48.322;14.340;2022-09-01T10:32:56;20.30;97.50
8591;DHT22;4333;48.322;14.340;2022-09-01T10:35:36;20.30;99.10
8591;DHT22;4333;48.322;14.340;2022-09-01T10:38:09;20.30;96.80
8591;DHT22;4333;48.322;14.340;2022-09-01T10:40:44;20.40;97.80
8591;DHT22;4333;48.322;14.340;2022-09-01T10:45:54;20.70;97.00
8591;DHT22;4333;48.322;14.340;2022-09-01T10:48:21;20.90;98.00
8591;DHT22;4333;48.322;14.340;2022-09-01T10:50:52;20.90;92.40
8591;DHT22;4333;48.322;14.340;2022-09-01T10:59:09;20.80;95.40
8591;DHT22;4333;48.322;14.340;2022-09-01T11:04:12;21.10;92.50
8591;DHT22;4333;48.322;14.340;2022-09-01T11:14:52;21.70;86.00
8591;DHT22;4333;48.322;14.340;2022-09-01T11:17:24;21.60;91.00
8591;DHT22;4333;48.322;14.340;2022-09-01T11:23:07;22.20;91.10
8591;DHT22;4333;48.322;14.340;2022-09-01T11:25:45;21.90;92.90
8591;DHT22;4333;48.322;14.340;2022-09-01T11:33:44;22.10;97.80
8591;DHT22;4333;48.322;14.340;2022-09-01T11:36:34;22.20;98.10
8591;DHT22;4333;48.322;14.340;2022-09-01T11:44:51;22.20;99.40
8591;DHT22;4333;48.322;14.340;2022-09-01T11:47:36;22.10;98.80
8591;DHT22;4333;48.322;14.340;2022-09-01T11:50:07;22.20;98.90
8591;DHT22;4333;48.322;14.340;2022-09-01T11:55:39;22.20;97.40
8591;DHT22;4333;48.322;14.340;2022-09-01T11:58:10;22.20;99.00
8591;DHT22;4333;48.322;14.340;2022-09-01T12:00:43;22.10;97.00
8591;DHT22;4333;48.322;14.340;2022-09-01T12:05:55;22.00;96.50
8591;DHT22;4333;48.322;14.340;2022-09-01T12:08:28;21.90;99.70
8591;DHT22;4333;48.322;14.340;2022-09-01T12:11:12;21.90;98.30
8591;DHT22;4333;48.322;14.340;2022-09-01T12:14:03;21.90;97.70
8591;DHT22;4333;48.322;14.340;2022-09-01T12:16:31;21.90;99.50
8591;DHT22;4333;48.322;14.340;2022-09-01T12:19:02;21.90;99.90
8591;DHT22;4333;48.322;14.340;2022-09-01T12:21:36;21.70;99.40
8591;DHT22;4333;48.322;14.340;2022-09-01T12:24:21;21.60;99.30
8591;DHT22;4333;48.322;14.340;2022-09-01T12:26:50;21.50;98.70
8591;DHT22;4333;48.322;14.340;2022-09-01T12:29:18;21.40;99.90
8591;DHT22;4333;48.322;14.340;2022-09-01T12:31:49;21.30;99.90
8591;DHT22;4333;48.322;14.340;2022-09-01T12:37:10;21.00;99.90
8591;DHT22;4333;48.322;14.340;2022-09-01T12:39:42;20.90;99.90
8591;DHT22;4333;48.322;14.340;2022-09-01T12:45:05;20.80;99.90
8591;DHT22;4333;48.322;14.340;2022-09-01T12:52:58;20.30;99.90
8591;DHT22;4333;48.322;14.340;2022-09-01T12:55:25;19.90;99.90
8591;DHT22;4333;48.322;14.340;2022-09-01T12:57:54;19.50;99.90
8591;DHT22;4333;48.322;14.340;2022-09-01T13:00:34;19.40;99.90
8591;DHT22;4333;48.322;14.340;2022-09-01T13:08:02;19.10;99.90
8591;DHT22;4333;48.322;14.340;2022-09-01T13:10:34;19.20;99.90
8591;DHT22;4333;48.322;14.340;2022-09-01T13:13:03;19.50;99.90
8591;DHT22;4333;48.322;14.340;2022-09-01T13:15:29;19.70;99.90
8591;DHT22;4333;48.322;14.340;2022-09-01T13:17:56;20.00;99.90
8591;DHT22;4333;48.322;14.340;2022-09-01T13:20:22;20.00;99.90
8591;DHT22;4333;48.322;14.340;2022-09-01T13:22:48;20.20;99.90
8591;DHT22;4333;48.322;14.340;2022-09-01T13:25:17;20.20;99.90
8591;DHT22;4333;48.322;14.340;2022-09-01T13:27:43;20.40;99.90
8591;DHT22;4333;48.322;14.340;2022-09-01T13:30:13;20.40;99.90
8591;DHT22;4333;48.322;14.340;2022-09-01T13:32:40;20.50;99.90
8591;DHT22;4333;48.322;14.340;2022-09-01T13:35:07;20.60;99.90
8591;DHT22;4333;48.322;14.340;2022-09-01T13:37:36;20.70;99.90
8591;DHT22;4333;48.322;14.340;2022-09-01T13:40:05;20.70;99.90
8591;DHT22;4333;48.322;14.340;2022-09-01T13:42:44;20.80;99.90
8591;DHT22;4333;48.322;14.340;2022-09-01T13:45:11;20.90;99.90
8591;DHT22;4333;48.322;14.340;2022-09-01T13:47:42;20.80;99.90
8591;DHT22;4333;48.322;14.340;2022-09-01T13:50:10;20.80;99.90
8591;DHT22;4333;48.322;14.340;2022-09-01T13:52:40;20.80;99.90
8591;DHT22;4333;48.322;14.340;2022-09-01T13:55:12;20.70;99.90
8591;DHT22;4333;48.322;14.340;2022-09-01T13:57:40;20.40;99.90
8591;DHT22;4333;48.322;14.340;2022-09-01T14:00:10;20.30;99.90
8591;DHT22;4333;48.322;14.340;2022-09-01T14:02:43;20.20;99.90
8591;DHT22;4333;48.322;14.340;2022-09-01T14:05:19;20.00;99.90
8591;DHT22;4333;48.322;14.340;2022-09-01T14:07:45;20.00;99.90
8591;DHT22;4333;48.322;14.340;2022-09-01T14:10:11;20.00;99.90
8591;DHT22;4333;48.322;14.340;2022-09-01T14:12:39;20.00;99.90
8591;DHT22;4333;48.322;14.340;2022-09-01T14:15:10;19.80;99.90
8591;DHT22;4333;48.322;14.340;2022-09-01T14:17:40;19.90;99.90
8591;DHT22;4333;48.322;14.340;2022-09-01T14:20:10;19.90;99.90
8591;DHT22;4333;48.322;14.340;2022-09-01T14:22:39;19.80;99.90
8591;DHT22;4333;48.322;14.340;2022-09-01T14:25:11;19.80;99.90
8591;DHT22;4333;48.322;14.340;2022-09-01T14:27:38;19.90;99.90
8591;DHT22;4333;48.322;14.340;2022-09-01T14:30:06;19.90;99.90
8591;DHT22;4333;48.322;14.340;2022-09-01T14:32:34;19.90;99.90
8591;DHT22;4333;48.322;14.340;2022-09-01T14:35:01;19.80;99.90
8591;DHT22;4333;48.322;14.340;2022-09-01T14:37:28;20.00;99.90
8591;DHT22;4333;48.322;14.340;2022-09-01T14:39:56;20.10;99.90
8591;DHT22;4333;48.322;14.340;2022-09-01T14:42:22;20.10;99.90
8591;DHT22;4333;48.322;14.340;2022-09-01T14:44:50;20.00;99.90
8591;DHT22;4333;48.322;14.340;2022-09-01T14:47:19;19.90;99.90
8591;DHT22;4333;48.322;14.340;2022-09-01T14:49:51;19.80;99.90
8591;DHT22;4333;48.322;14.340;2022-09-01T14:52:17;19.70;99.90
8591;DHT22;4333;48.322;14.340;2022-09-01T14:54:44;19.60;99.90
8591;DHT22;4333;48.322;14.340;2022-09-01T14:57:10;19.40;99.90
8591;DHT22;4333;48.322;14.340;2022-09-01T14:59:36;19.50;99.90
8591;DHT22;4333;48.322;14.340;2022-09-01T15:02:03;19.30;99.90
8591;DHT22;4333;48.322;14.340;2022-09-01T15:04:29;19.30;99.90
8591;DHT22;4333;48.322;14.340;2022-09-01T15:06:55;19.20;99.90
8591;DHT22;4333;48.322;14.340;2022-09-01T15:09:23;19.20;99.90
8591;DHT22;4333;48.322;14.340;2022-09-01T15:11:49;19.20;99.90
8591;DHT22;4333;48.322;14.340;2022-09-01T15:14:15;19.30;99.90
8591;DHT22;4333;48.322;14.340;2022-09-01T15:16:41;19.20;99.90
8591;DHT22;4333;48.322;14.340;2022-09-01T15:19:08;19.20;99.90
8591;DHT22;4333;48.322;14.340;2022-09-01T15:21:36;19.30;99.90
8591;DHT22;4333;48.322;14.340;2022-09-01T15:24:04;19.20;99.90
8591;DHT22;4333;48.322;14.340;2022-09-01T15:26:31;19.10;99.90
8591;DHT22;4333;48.322;14.340;2022-09-01T15:29:11;19.10;99.90
8591;DHT22;4333;48.322;14.340;2022-09-01T15:31:40;18.90;99.90
8591;DHT22;4333;48.322;14.340;2022-09-01T15:34:07;18.90;99.90
8591;DHT22;4333;48.322;14.340;2022-09-01T15:36:38;18.80;99.90
8591;DHT22;4333;48.322;14.340;2022-09-01T15:39:07;18.70;99.90
8591;DHT22;4333;48.322;14.340;2022-09-01T15:41:34;18.60;99.90
8591;DHT22;4333;48.322;14.340;2022-09-01T15:44:03;18.50;99.90
8591;DHT22;4333;48.322;14.340;2022-09-01T15:46:30;18.50;99.90
8591;DHT22;4333;48.322;14.340;2022-09-01T15:49:03;18.50;99.90
8591;DHT22;4333;48.322;14.340;2022-09-01T15:51:37;18.50;99.90
8591;DHT22;4333;48.322;14.340;2022-09-01T15:54:09;18.40;99.90
8591;DHT22;4333;48.322;14.340;2022-09-01T15:56:35;18.40;99.90
8591;DHT22;4333;48.322;14.340;2022-09-01T15:59:06;18.30;99.90
8591;DHT22;4333;48.322;14.340;2022-09-01T16:01:40;18.20;99.90
8591;DHT22;4333;48.322;14.340;2022-09-01T16:04:09;18.10;99.90
8591;DHT22;4333;48.322;14.340;2022-09-01T16:06:36;18.00;99.90
8591;DHT22;4333;48.322;14.340;2022-09-01T16:09:03;18.00;99.90
8591;DHT22;4333;48.322;14.340;2022-09-01T16:11:29;17.90;99.90
8591;DHT22;4333;48.322;14.340;2022-09-01T16:13:55;17.90;99.90
8591;DHT22;4333;48.322;14.340;2022-09-01T16:19:20;17.90;99.90
8591;DHT22;4333;48.322;14.340;2022-09-01T16:24:36;17.80;99.90
8591;DHT22;4333;48.322;14.340;2022-09-01T16:27:07;17.80;99.90
8591;DHT22;4333;48.322;14.340;2022-09-01T16:29:39;17.70;99.90
8591;DHT22;4333;48.322;14.340;2022-09-01T16:32:06;17.60;99.90
8591;DHT22;4333;48.322;14.340;2022-09-01T16:34:32;17.50;99.90
8591;DHT22;4333;48.322;14.340;2022-09-01T16:42:52;17.30;99.90
8591;DHT22;4333;48.322;14.340;2022-09-01T16:54:01;17.10;99.90
8591;DHT22;4333;48.322;14.340;2022-09-01T16:56:52;17.00;99.90
8591;DHT22;4333;48.322;14.340;2022-09-01T17:04:48;16.70;99.90
8591;DHT22;4333;48.322;14.340;2022-09-01T17:09:59;16.60;99.90
8591;DHT22;4333;48.322;14.340;2022-09-01T17:15:11;16.40;99.90
8591;DHT22;4333;48.322;14.340;2022-09-01T17:20:11;16.40;99.90
8591;DHT22;4333;48.322;14.340;2022-09-01T17:22:47;16.40;99.90
8591;DHT22;4333;48.322;14.340;2022-09-01T17:25:30;16.30;99.90
8591;DHT22;4333;48.322;14.340;2022-09-01T17:28:12;16.40;99.90
8591;DHT22;4333;48.322;14.340;2022-09-01T17:30:52;16.30;99.90
8591;DHT22;4333;48.322;14.340;2022-09-01T17:34:02;16.30;99.90
8591;DHT22;4333;48.322;14.340;2022-09-01T17:41:48;16.30;99.90
8591;DHT22;4333;48.322;14.340;2022-09-01T17:47:12;16.40;99.90
8591;DHT22;4333;48.322;14.340;2022-09-01T17:49:55;16.30;99.90
8591;DHT22;4333;48.322;14.340;2022-09-01T17:55:34;16.40;99.90
8591;DHT22;4333;48.322;14.340;2022-09-01T18:03:41;16.10;99.90
8591;DHT22;4333;48.322;14.340;2022-09-01T18:08:56;16.10;99.90
8591;DHT22;4333;48.322;14.340;2022-09-01T18:11:40;16.10;99.90
8591;DHT22;4333;48.322;14.340;2022-09-01T18:14:13;16.20;99.90
8591;DHT22;4333;48.322;14.340;2022-09-01T18:19:21;16.20;99.90
8591;DHT22;4333;48.322;14.340;2022-09-01T18:22:00;16.20;99.90
8591;DHT22;4333;48.322;14.340;2022-09-01T18:26:51;16.10;99.90
8591;DHT22;4333;48.322;14.340;2022-09-01T18:29:18;16.10;99.90